Time;durP1;ratioP1;P1;durP2;ratioP2;P2;SDS_P1;SDS_P2;PMS_P1;PMS_P2;Temp;Humidity;BMP_temperature;BMP_pressure;BME280_temperature;BME280_humidity;BME280_pressure;Samples;Min_cycle;Max_cycle;Signal;HPM_P1;HPM_P2
2023/10/28 00:02:22;;;;;;;0.73;0.60;;;17.10;99.90;;;17.41;60.60;99195.63;4898183;28;98639;-72
2023/10/28 00:04:47;;;;;;;2.13;0.90;;;17.00;99.90;;;17.34;60.68;99199.78;4905993;28;97251;-72
2023/10/28 00:07:13;;;;;;;0.77;0.53;;;16.90;99.90;;;17.30;60.82;99198.38;4905950;28;98261;-72
2023/10/28 00:09:40;;;;;;;1.20;0.60;;;16.90;99.90;;;17.32;60.76;99196.41;4909327;28;99403;-72
2023/10/28 00:12:08;;;;;;;3.57;1.00;;;17.00;99.90;;;17.32;61.54;99201.75;4905142;28;97476;-72
2023/10/28 00:14:34;;;;;;;1.30;0.80;;;17.00;99.90;;;17.39;61.81;99192.25;4902032;28;99396;-73
2023/10/28 00:17:00;;;;;;;1.43;0.70;;;17.20;99.90;;;17.43;58.91;99191.00;4915271;28;97079;-73
2023/10/28 00:19:29;;;;;;;1.57;1.03;;;17.30;99.90;;;17.38;58.13;99190.56;4888540;28;98864;-72
2023/10/28 00:21:55;;;;;;;1.40;0.57;;;17.30;99.90;;;17.38;60.43;99195.91;4908027;28;105894;-72
2023/10/28 00:24:22;;;;;;;0.83;0.83;;;17.20;99.90;;;17.36;60.99;99203.19;4903174;28;100168;-72
2023/10/28 00:26:48;;;;;;;1.23;0.90;;;17.10;99.90;;;17.43;61.55;99204.31;4897178;28;97547;-72
2023/10/28 00:29:13;;;;;;;1.27;0.83;;;17.20;99.90;;;17.35;60.92;99204.13;4899827;28;97796;-72
2023/10/28 00:31:40;;;;;;;1.73;0.60;;;17.10;99.90;;;17.37;61.11;99210.19;4902794;28;96994;-73
2023/10/28 00:34:06;;;;;;;2.67;1.03;;;17.20;99.90;;;17.31;58.53;99204.53;4890617;28;100802;-72
2023/10/28 00:36:33;;;;;;;0.50;0.50;;;17.10;99.90;;;17.31;61.90;99205.38;4897163;28;99020;-72
2023/10/28 00:38:58;;;;;;;1.23;0.53;;;17.10;99.90;;;17.30;61.64;99205.53;4887622;28;96809;-73
2023/10/28 00:41:24;;;;;;;1.37;0.70;;;17.00;99.90;;;17.29;60.91;99210.00;4905537;28;97798;-72
2023/10/28 00:43:50;;;;;;;1.43;0.90;;;17.00;99.90;;;17.33;60.62;99211.41;4916009;28;100542;-73
2023/10/28 00:46:16;;;;;;;0.60;0.60;;;17.10;99.90;;;17.35;61.87;99209.47;4900870;28;99089;-73
2023/10/28 00:48:43;;;;;;;1.30;0.80;;;17.10;99.90;;;17.41;61.54;99200.97;4910586;28;98649;-73
2023/10/28 00:51:09;;;;;;;2.27;0.77;;;17.30;99.90;;;17.44;61.47;99200.69;4894414;28;99363;-72
2023/10/28 00:53:36;;;;;;;1.03;0.70;;;17.30;99.90;;;17.47;59.70;99203.06;4906603;28;97767;-72
2023/10/28 00:56:03;;;;;;;0.70;0.70;;;17.30;99.90;;;17.52;61.21;99203.53;4906511;28;97677;-73
2023/10/28 00:58:31;;;;;;;0.73;0.53;;;17.40;99.90;;;17.60;61.07;99205.53;4897757;28;97460;-72
2023/10/28 01:00:58;;;;;;;1.57;0.80;;;17.50;99.90;;;17.68;60.83;99202.19;4904542;28;98087;-72
2023/10/28 01:03:24;;;;;;;2.10;0.80;;;17.70;99.90;;;17.74;60.70;99201.69;4904934;28;100200;-72
2023/10/28 01:05:51;;;;;;;0.40;0.40;;;17.70;99.90;;;17.79;60.28;99200.31;4902394;28;99658;-72
2023/10/28 01:08:17;;;;;;;1.43;0.80;;;17.80;99.90;;;17.81;59.92;99192.16;4904648;28;111877;-73
2023/10/28 01:10:43;;;;;;;1.07;0.70;;;17.80;99.90;;;17.79;59.98;99196.78;4907457;28;99461;-73
2023/10/28 01:13:09;;;;;;;1.40;0.80;;;17.80;99.90;;;17.79;60.36;99199.44;4896958;28;104204;-73
2023/10/28 01:15:35;;;;;;;1.43;0.77;;;17.70;99.90;;;17.79;59.99;99204.78;4907349;28;97783;-73
2023/10/28 01:18:01;;;;;;;1.27;0.73;;;17.70;99.90;;;17.78;60.38;99203.94;4885217;28;98198;-72
2023/10/28 01:20:27;;;;;;;1.33;0.70;;;17.70;99.90;;;17.80;60.46;99196.66;4910451;28;99234;-72
2023/10/28 01:22:53;;;;;;;1.40;0.90;;;17.70;99.90;;;17.76;60.32;99205.03;4915413;28;100347;-72
2023/10/28 01:25:20;;;;;;;0.63;0.60;;;17.60;99.90;;;17.71;59.01;99201.94;4886606;28;97615;-72
2023/10/28 01:27:47;;;;;;;0.67;0.57;;;17.60;99.90;;;17.67;60.62;99200.50;4894731;28;98751;-72
2023/10/28 01:30:16;;;;;;;0.93;0.60;;;17.50;99.90;;;17.64;60.40;99196.25;4899743;28;97312;-72
2023/10/28 01:32:42;;;;;;;1.27;0.70;;;17.40;99.90;;;17.65;60.95;99202.44;4896443;28;100999;-72
2023/10/28 01:35:12;;;;;;;1.10;0.50;;;17.40;99.90;;;17.67;60.53;99201.34;4910468;28;98552;-73
2023/10/28 01:37:39;;;;;;;0.57;0.50;;;17.50;99.90;;;17.69;60.60;99203.91;4896316;28;97350;-73
2023/10/28 01:40:09;;;;;;;0.90;0.30;;;17.50;99.90;;;17.73;60.53;99205.31;4905114;28;97069;-72
2023/10/28 01:42:38;;;;;;;1.00;0.50;;;17.60;99.90;;;17.74;60.61;99204.34;4900813;28;97002;-73
2023/10/28 01:45:06;;;;;;;0.97;0.70;;;17.70;99.90;;;17.79;60.56;99204.78;4905831;28;98619;-73
2023/10/28 01:47:31;;;;;;;1.23;0.60;;;17.70;99.90;;;17.78;60.20;99205.75;4900732;28;98824;-72
2023/10/28 01:49:58;;;;;;;0.70;0.47;;;17.70;99.90;;;17.81;60.40;99213.50;4901962;28;97535;-73
2023/10/28 01:52:25;;;;;;;0.70;0.50;;;17.70;99.90;;;17.68;59.65;99215.53;4900851;28;99382;-73
2023/10/28 01:54:51;;;;;;;1.00;0.87;;;17.50;99.90;;;17.64;58.63;99206.09;4900009;28;117064;-72
2023/10/28 01:57:17;;;;;;;2.13;0.63;;;17.40;99.90;;;17.48;59.18;99215.44;4906282;28;99456;-72
2023/10/28 01:59:44;;;;;;;2.47;0.70;;;17.20;99.90;;;17.40;60.03;99220.59;4909591;28;98454;-72
2023/10/28 02:02:10;;;;;;;1.50;0.80;;;17.00;99.90;;;17.35;60.58;99217.47;4907450;28;101231;-72
2023/10/28 02:04:36;;;;;;;1.30;0.90;;;17.00;99.90;;;17.31;61.50;99221.38;4899855;28;98463;-73
2023/10/28 02:07:04;;;;;;;1.97;0.70;;;16.90;99.90;;;17.30;61.94;99218.84;4905315;28;98463;-72
2023/10/28 02:09:33;;;;;;;2.57;0.50;;;16.90;99.90;;;17.32;62.00;99223.06;4900279;28;97240;-72
2023/10/28 02:12:01;;;;;;;1.87;0.93;;;17.00;99.90;;;17.18;60.33;99220.72;4898869;28;98192;-73
2023/10/28 02:14:28;;;;;;;2.00;0.70;;;16.80;99.90;;;17.19;61.47;99227.75;4915972;28;100916;-72
2023/10/28 02:16:55;;;;;;;1.70;0.90;;;16.80;99.90;;;17.09;61.56;99221.53;4926396;28;97074;-72
2023/10/28 02:19:21;;;;;;;2.33;1.00;;;16.70;99.90;;;16.98;61.91;99224.25;4910477;28;97106;-72
2023/10/28 02:21:48;;;;;;;1.97;1.20;;;16.60;99.90;;;16.82;62.23;99230.03;4914976;28;107544;-72
2023/10/28 02:24:17;;;;;;;1.17;0.70;;;16.40;99.90;;;16.90;63.39;99223.06;4915628;28;97426;-74
2023/10/28 02:26:43;;;;;;;0.83;0.60;;;16.40;99.90;;;16.92;63.45;99215.81;4918366;28;97868;-72
2023/10/28 02:29:10;;;;;;;0.90;0.80;;;16.50;99.90;;;16.92;62.20;99220.28;4917354;28;100195;-72
2023/10/28 02:31:36;;;;;;;0.70;0.60;;;16.50;99.90;;;16.89;62.95;99221.38;4911017;28;97776;-72
2023/10/28 02:34:05;;;;;;;2.30;0.83;;;16.40;99.90;;;16.88;62.71;99227.69;4909376;28;98402;-72
2023/10/28 02:36:31;;;;;;;2.17;1.23;;;16.40;99.90;;;16.86;62.37;99229.63;4919266;28;97179;-74
2023/10/28 02:38:56;;;;;;;0.97;0.73;;;16.40;99.90;;;16.83;63.50;99227.25;4916151;28;97446;-75
2023/10/28 02:41:22;;;;;;;2.30;0.70;;;16.30;99.90;;;16.89;63.75;99223.22;4910998;28;117281;-73
2023/10/28 02:43:48;;;;;;;1.80;0.63;;;16.40;99.90;;;16.93;63.42;99217.50;4916413;28;112381;-74
2023/10/28 02:46:24;;;;;;;0.70;0.60;;;16.50;99.90;;;17.04;63.40;99224.56;4912351;28;110178;-74
2023/10/28 02:48:53;;;;;;;0.97;0.57;;;16.70;99.90;;;17.11;62.85;99208.94;4916469;28;97245;-74
2023/10/28 02:51:19;;;;;;;0.70;0.60;;;16.90;99.90;;;17.21;62.51;99220.47;4919520;28;102884;-74
2023/10/28 02:53:45;;;;;;;0.93;0.50;;;17.00;99.90;;;17.28;62.25;99221.63;4911331;28;97579;-74
2023/10/28 02:56:11;;;;;;;2.20;0.70;;;17.10;99.90;;;17.30;62.01;99225.00;4917388;28;97198;-74
2023/10/28 02:58:39;;;;;;;0.60;0.40;;;17.20;99.90;;;17.28;61.80;99226.97;4920259;28;97539;-74
2023/10/28 03:01:10;;;;;;;1.17;0.53;;;17.10;99.90;;;17.25;61.80;99229.91;4913527;28;97422;-74
2023/10/28 03:03:36;;;;;;;2.47;1.30;;;17.00;99.90;;;17.25;61.04;99227.25;4917495;28;97645;-74
2023/10/28 03:06:02;;;;;;;0.90;0.60;;;17.00;99.90;;;17.31;62.15;99237.34;4908601;28;98967;-74
2023/10/28 03:08:28;;;;;;;1.00;0.67;;;17.10;99.90;;;17.38;61.90;99221.72;4911663;28;97566;-74
2023/10/28 03:10:54;;;;;;;0.97;0.70;;;17.20;99.90;;;17.43;61.70;99228.31;4921054;28;101507;-74
2023/10/28 03:13:21;;;;;;;0.83;0.60;;;17.30;99.90;;;17.49;61.15;99224.25;4899904;28;98938;-74
2023/10/28 03:15:47;;;;;;;0.90;0.60;;;17.40;99.90;;;17.57;61.14;99218.28;4921089;28;98439;-74
2023/10/28 03:18:13;;;;;;;0.77;0.50;;;17.50;99.90;;;17.63;61.11;99228.41;4915919;28;97976;-74
2023/10/28 03:20:39;;;;;;;2.40;0.80;;;17.60;99.90;;;17.66;60.79;99225.50;4918080;28;98184;-73
2023/10/28 03:23:05;;;;;;;0.80;0.50;;;17.60;99.90;;;17.72;60.84;99230.31;4932544;23;97370;-72
2023/10/28 03:25:32;;;;;;;0.77;0.40;;;17.70;99.90;;;17.76;60.54;99221.03;4916443;28;97960;-72
2023/10/28 03:28:01;;;;;;;1.03;0.60;;;17.70;99.90;;;17.73;60.00;99232.00;4916280;28;99051;-74
2023/10/28 03:30:27;;;;;;;1.53;0.80;;;17.70;99.90;;;17.77;60.68;99225.41;4919359;28;98045;-74
2023/10/28 03:32:53;;;;;;;0.77;0.60;;;17.70;99.90;;;17.73;59.48;99226.66;4914740;28;100331;-73
2023/10/28 03:35:20;;;;;;;0.73;0.50;;;17.60;99.90;;;17.64;60.54;99227.41;4911365;28;97582;-73
2023/10/28 03:37:46;;;;;;;0.70;0.47;;;17.50;99.90;;;17.51;60.70;99233.84;4908109;28;97959;-76
2023/10/28 03:40:12;;;;;;;1.07;0.63;;;17.20;99.90;;;17.38;60.97;99235.88;4917675;28;97524;-75
2023/10/28 03:42:38;;;;;;;1.63;0.60;;;17.00;99.90;;;17.35;61.53;99238.78;4912811;28;97070;-75
2023/10/28 03:45:07;;;;;;;0.57;0.50;;;16.90;99.90;;;17.38;61.70;99230.53;4914711;28;98962;-75
2023/10/28 03:47:34;;;;;;;2.83;1.17;;;17.10;99.90;;;17.44;59.55;99227.34;4910623;28;99267;-75
2023/10/28 03:50:00;;;;;;;0.30;0.30;;;17.20;99.90;;;17.44;61.50;99237.16;4912242;28;98188;-73
2023/10/28 03:52:26;;;;;;;0.93;0.70;;;17.20;99.90;;;17.46;61.52;99235.19;4915876;28;97128;-73
2023/10/28 03:54:52;;;;;;;1.33;0.50;;;17.30;99.90;;;17.53;61.33;99234.56;4896859;28;97459;-73
2023/10/28 03:57:18;;;;;;;0.50;0.50;;;17.40;99.90;;;17.57;61.38;99242.28;4915630;28;97305;-73
2023/10/28 03:59:46;;;;;;;0.87;0.50;;;17.40;99.90;;;17.64;61.11;99243.41;4916224;28;101707;-75
2023/10/28 04:02:12;;;;;;;0.40;0.40;;;17.50;99.90;;;17.65;61.04;99240.66;4920254;28;99971;-73
2023/10/28 04:04:38;;;;;;;1.57;0.50;;;17.60;99.90;;;17.71;60.73;99233.94;4914577;28;104995;-73
2023/10/28 04:07:04;;;;;;;0.87;0.47;;;17.60;99.90;;;17.76;60.56;99247.72;4910354;28;97179;-73
2023/10/28 04:09:30;;;;;;;1.23;0.90;;;17.70;99.90;;;17.72;57.43;99246.31;4911123;28;97965;-75
2023/10/28 04:12:01;;;;;;;1.07;0.63;;;17.60;99.90;;;17.67;60.41;99243.16;4916955;28;108984;-73
2023/10/28 04:14:27;;;;;;;0.60;0.50;;;17.50;99.90;;;17.66;60.95;99241.47;4911561;28;99651;-76
2023/10/28 04:16:52;;;;;;;0.67;0.63;;;17.50;99.90;;;17.66;60.76;99230.81;4913036;28;101187;-73
2023/10/28 04:19:18;;;;;;;1.17;0.60;;;17.50;99.90;;;17.64;61.12;99233.59;4914318;28;107313;-73
2023/10/28 04:21:44;;;;;;;0.93;0.50;;;17.50;99.90;;;17.69;60.91;99241.25;4914885;28;99308;-75
2023/10/28 04:24:10;;;;;;;1.13;0.40;;;17.50;99.90;;;17.72;60.71;99232.97;4897795;28;119395;-73
2023/10/28 04:26:36;;;;;;;1.00;0.60;;;17.60;99.90;;;17.77;60.50;99244.06;4914624;28;97527;-73
2023/10/28 04:29:03;;;;;;;1.37;0.50;;;17.70;99.90;;;17.82;60.27;99241.84;4893545;28;99591;-73
2023/10/28 04:31:31;;;;;;;1.57;0.53;;;17.80;99.90;;;17.85;60.37;99241.59;4906752;28;97495;-73
2023/10/28 04:33:56;;;;;;;0.73;0.60;;;17.80;99.90;;;17.89;60.39;99236.81;4916070;28;96837;-73
2023/10/28 04:36:24;;;;;;;0.77;0.43;;;17.90;99.90;;;17.92;60.02;99242.72;4909484;28;97602;-73
2023/10/28 04:38:51;;;;;;;0.63;0.37;;;17.90;99.90;;;17.92;59.52;99237.38;4909150;28;97771;-73
2023/10/28 04:41:17;;;;;;;1.00;0.60;;;17.90;99.90;;;17.93;60.06;99233.72;4912848;28;97703;-73
2023/10/28 04:43:42;;;;;;;0.50;0.40;;;17.90;99.90;;;17.95;59.95;99230.97;4915278;28;99156;-73
2023/10/28 04:46:09;;;;;;;1.83;0.70;;;18.00;99.90;;;17.93;56.64;99233.72;4912939;28;108890;-73
2023/10/28 04:48:34;;;;;;;1.17;0.30;;;17.90;99.90;;;17.86;57.98;99232.59;4909418;28;100120;-73
2023/10/28 04:51:02;;;;;;;0.60;0.23;;;17.80;99.90;;;17.85;59.80;99233.59;4915184;28;100101;-73
2023/10/28 04:53:28;;;;;;;1.00;0.60;;;17.80;99.90;;;17.72;59.45;99231.16;4916967;28;97277;-73
2023/10/28 04:55:55;;;;;;;0.40;0.30;;;17.60;99.90;;;17.68;59.72;99223.53;4910311;28;102751;-73
2023/10/28 04:58:24;;;;;;;0.50;0.50;;;17.50;99.90;;;17.71;60.59;99228.63;4919098;28;99578;-73
2023/10/28 05:00:50;;;;;;;0.93;0.67;;;17.60;99.90;;;17.71;59.10;99233.94;4920339;28;102415;-73
2023/10/28 05:03:16;;;;;;;1.03;0.57;;;17.60;99.90;;;17.72;60.45;99219.63;4914032;28;97419;-74
2023/10/28 05:05:42;;;;;;;0.53;0.33;;;17.60;99.90;;;17.70;60.55;99221.59;4915026;28;97199;-73
2023/10/28 05:08:08;;;;;;;0.60;0.50;;;17.60;99.90;;;17.72;60.03;99219.63;4906848;28;98043;-73
2023/10/28 05:10:34;;;;;;;1.40;0.70;;;17.60;99.90;;;17.77;60.27;99228.06;4910308;28;97581;-73
2023/10/28 05:13:00;;;;;;;1.77;0.50;;;17.70;99.90;;;17.79;60.26;99228.78;4914438;28;97666;-73
2023/10/28 05:15:26;;;;;;;1.10;0.60;;;17.80;99.90;;;17.81;59.88;99221.50;4910613;28;103143;-72
2023/10/28 05:17:52;;;;;;;0.70;0.30;;;17.80;99.90;;;17.81;60.25;99227.69;4914131;28;116881;-73
2023/10/28 05:20:17;;;;;;;0.83;0.50;;;17.80;99.90;;;17.86;60.17;99227.28;4910146;28;98420;-73
2023/10/28 05:22:43;;;;;;;0.80;0.50;;;17.90;99.90;;;17.91;60.08;99233.03;4918885;28;97926;-73
2023/10/28 05:25:09;;;;;;;0.63;0.50;;;18.00;99.90;;;17.90;59.19;99228.69;4908640;28;97695;-73
2023/10/28 05:27:36;;;;;;;0.67;0.47;;;17.90;99.90;;;17.86;59.78;99229.94;4911213;28;97290;-73
2023/10/28 05:30:03;;;;;;;0.90;0.40;;;17.80;99.90;;;17.87;57.91;99228.97;4916518;28;99572;-73
2023/10/28 05:32:31;;;;;;;0.40;0.40;;;17.90;99.90;;;17.87;59.70;99226.28;4920775;28;97071;-74
2023/10/28 05:34:58;;;;;;;0.63;0.63;;;17.80;99.90;;;17.88;59.93;99225.31;4915672;28;98016;-73
2023/10/28 05:37:26;;;;;;;0.50;0.40;;;17.90;99.90;;;17.92;59.78;99226.72;4916776;28;100481;-73
2023/10/28 05:39:52;;;;;;;0.50;0.50;;;18.00;99.90;;;17.93;59.57;99228.41;4887698;28;97648;-73
2023/10/28 05:42:18;;;;;;;0.40;0.30;;;18.00;99.90;;;17.97;59.30;99223.66;4905565;28;97137;-73
2023/10/28 05:44:44;;;;;;;0.87;0.50;;;18.00;99.90;;;17.99;59.62;99222.53;4914886;28;97242;-73
2023/10/28 05:47:11;;;;;;;0.70;0.40;;;18.10;99.90;;;18.03;59.34;99223.09;4918985;28;97567;-73
2023/10/28 05:49:37;;;;;;;0.90;0.30;;;18.10;99.90;;;18.04;59.15;99224.78;4920464;28;97403;-73
2023/10/28 05:52:03;;;;;;;0.80;0.27;;;18.10;99.90;;;18.03;59.41;99229.28;4922721;28;99826;-73
2023/10/28 05:54:30;;;;;;;1.17;0.40;;;18.10;99.90;;;18.06;59.37;99228.16;4923388;28;98891;-73
2023/10/28 05:56:57;;;;;;;1.33;0.47;;;18.10;99.90;;;18.04;59.51;99222.97;4915234;28;97422;-73
2023/10/28 05:59:23;;;;;;;0.30;0.30;;;18.20;99.90;;;18.09;59.08;99234.09;4926231;28;101097;-73
2023/10/28 06:01:49;;;;;;;0.80;0.50;;;18.20;99.90;;;18.11;59.15;99232.13;4913894;28;97088;-73
2023/10/28 06:04:15;;;;;;;0.40;0.30;;;18.20;99.90;;;18.13;59.15;99230.16;4934146;28;97516;-74
2023/10/28 06:06:41;;;;;;;0.73;0.30;;;18.20;99.90;;;18.11;55.65;99237.47;4918173;28;97955;-76
2023/10/28 06:09:11;;;;;;;0.87;0.40;;;18.20;99.90;;;18.06;59.23;99239.66;4922426;28;97190;-73
2023/10/28 06:11:37;;;;;;;0.63;0.40;;;18.10;99.90;;;18.00;56.43;99250.06;4913113;28;97002;-73
2023/10/28 06:14:03;;;;;;;0.77;0.40;;;18.00;99.90;;;17.91;59.50;99246.38;4918559;28;98708;-73
2023/10/28 06:16:29;;;;;;;0.40;0.30;;;17.80;99.90;;;17.93;59.44;99243.56;4910626;28;97404;-74
2023/10/28 06:18:55;;;;;;;0.40;0.30;;;17.80;99.90;;;17.89;59.62;99245.66;4919380;28;97490;-73
2023/10/28 06:21:21;;;;;;;0.50;0.30;;;17.80;99.90;;;17.83;59.48;99248.88;4919170;28;97343;-73
2023/10/28 06:23:47;;;;;;;1.37;0.40;;;17.70;99.90;;;17.74;59.02;99257.69;4914067;28;97339;-73
2023/10/28 06:26:13;;;;;;;1.23;0.63;;;17.60;99.90;;;17.72;60.21;99251.63;4913302;28;98825;-73
2023/10/28 06:28:39;;;;;;;0.63;0.37;;;17.50;99.90;;;17.75;60.06;99251.38;4914825;28;113096;-73
2023/10/28 06:31:07;;;;;;;0.70;0.40;;;17.60;99.90;;;17.81;59.91;99251.69;4914816;28;98198;-73
2023/10/28 06:33:33;;;;;;;0.50;0.40;;;17.80;99.90;;;17.84;59.72;99255.91;4912517;28;97324;-73
2023/10/28 06:35:58;;;;;;;0.53;0.40;;;17.80;99.90;;;17.85;59.79;99260.25;4908409;28;99820;-74
2023/10/28 06:38:27;;;;;;;0.50;0.50;;;17.80;99.90;;;17.86;59.75;99253.94;4920050;28;118532;-73
2023/10/28 06:40:53;;;;;;;0.40;0.30;;;17.90;99.90;;;17.92;59.67;99258.72;4914480;28;97573;-73
2023/10/28 06:43:19;;;;;;;0.37;0.13;;;18.00;99.90;;;17.94;58.66;99262.13;4921771;28;99090;-74
2023/10/28 06:45:46;;;;;;;0.30;0.20;;;18.00;99.90;;;17.95;59.49;99265.63;4911737;28;97850;-74
2023/10/28 06:48:12;;;;;;;1.13;0.40;;;18.00;99.90;;;17.93;58.09;99260.41;4925014;28;97434;-72
2023/10/28 06:50:37;;;;;;;1.63;0.47;;;17.90;99.90;;;17.94;59.10;99266.59;4915650;28;97629;-73
2023/10/28 06:53:03;;;;;;;0.80;0.30;;;17.90;99.90;;;17.93;57.93;99271.06;4918631;28;96992;-73
2023/10/28 06:55:29;;;;;;;0.20;0.13;;;17.90;99.90;;;17.96;59.50;99262.84;4922168;28;98566;-73
2023/10/28 06:57:55;;;;;;;1.17;0.50;;;18.00;99.90;;;17.98;58.96;99263.53;4913739;28;99296;-73
2023/10/28 07:00:27;;;;;;;0.60;0.30;;;18.10;99.90;;;17.99;59.15;99270.56;4902510;28;112105;-73
2023/10/28 07:02:53;;;;;;;0.50;0.30;;;18.10;99.90;;;18.03;58.69;99271.97;4929169;28;97037;-73
2023/10/28 07:05:20;;;;;;;0.50;0.33;;;18.10;99.90;;;18.05;59.13;99274.50;4910305;28;98225;-74
2023/10/28 07:07:46;;;;;;;2.70;0.30;;;18.10;99.90;;;18.01;56.32;99267.75;4912922;28;97834;-74
2023/10/28 07:10:15;;;;;;;0.37;0.20;;;18.10;99.90;;;18.03;58.96;99266.63;4918841;28;96993;-73
2023/10/28 07:12:42;;;;;;;1.30;0.30;;;18.10;99.90;;;18.06;58.92;99271.69;4918517;28;97022;-73
2023/10/28 07:15:10;;;;;;;0.40;0.40;;;18.10;99.90;;;17.98;56.68;99263.53;4912053;28;98653;-73
2023/10/28 07:17:38;;;;;;;0.53;0.40;;;18.10;99.90;;;17.99;59.19;99267.88;4906059;28;97277;-73
2023/10/28 07:20:04;;;;;;;1.13;0.40;;;18.00;99.90;;;18.00;59.06;99274.91;4902916;28;97703;-74
2023/10/28 07:22:31;;;;;;;0.53;0.23;;;18.00;99.90;;;18.00;59.15;99272.25;4910806;28;96930;-74
2023/10/28 07:24:58;;;;;;;1.30;0.27;;;18.10;99.90;;;18.02;59.09;99264.09;4914081;28;97586;-73
2023/10/28 07:27:24;;;;;;;0.37;0.30;;;18.10;99.90;;;18.05;57.45;99266.50;4911374;28;97277;-73
2023/10/28 07:29:50;;;;;;;0.57;0.30;;;18.10;99.90;;;17.95;56.55;99274.47;4930796;28;97783;-73
2023/10/28 07:32:16;;;;;;;0.40;0.30;;;18.00;99.90;;;17.84;58.31;99271.91;4914426;28;96755;-73
2023/10/28 07:34:43;;;;;;;0.47;0.20;;;17.70;99.90;;;17.84;59.11;99282.56;4915724;28;105241;-73
2023/10/28 07:37:09;;;;;;;0.67;0.40;;;17.80;99.90;;;17.80;59.38;99279.34;4911738;28;99337;-73
2023/10/28 07:39:35;;;;;;;0.70;0.37;;;17.70;99.90;;;17.68;57.81;99287.53;4910342;28;97540;-73
2023/10/28 07:42:01;;;;;;;0.40;0.20;;;17.60;99.90;;;17.58;60.23;99291.94;4910895;28;97819;-74
2023/10/28 07:44:27;;;;;;;0.90;0.40;;;17.40;99.90;;;17.48;58.38;99294.53;4900392;28;100775;-73
2023/10/28 07:46:53;;;;;;;0.37;0.30;;;17.30;99.90;;;17.35;60.56;99297.41;4916325;28;99825;-73
2023/10/28 07:49:20;;;;;;;0.30;0.20;;;17.10;99.90;;;17.36;58.48;99304.47;4915171;28;96717;-73
2023/10/28 07:51:46;;;;;;;0.57;0.40;;;17.20;99.90;;;17.31;61.11;99301.31;4906928;28;98708;-73
2023/10/28 07:54:12;;;;;;;0.47;0.47;;;17.10;99.90;;;17.22;58.88;99307.44;4901020;28;100380;-73
2023/10/28 07:56:38;;;;;;;0.30;0.20;;;17.10;99.90;;;17.15;58.55;99311.59;4907777;28;99617;-73
2023/10/28 07:59:04;;;;;;;0.70;0.40;;;17.00;99.90;;;17.09;59.63;99307.63;4909581;28;101480;-73
2023/10/28 08:01:30;;;;;;;0.37;0.20;;;16.90;99.90;;;16.97;61.78;99321.13;4909918;28;97522;-74
2023/10/28 08:03:57;;;;;;;0.97;0.30;;;16.70;99.90;;;17.01;62.34;99319.88;4920007;28;98031;-73
2023/10/28 08:06:24;;;;;;;1.43;0.57;;;16.70;99.90;;;17.05;62.26;99321.31;4912352;28;97460;-73
2023/10/28 08:08:53;;;;;;;0.70;0.20;;;16.80;99.90;;;17.09;60.56;99325.44;4908357;28;97347;-73
2023/10/28 08:11:24;;;;;;;1.70;0.40;;;16.90;99.90;;;16.95;60.40;99329.25;4910350;28;98852;-74
2023/10/28 08:13:53;;;;;;;0.93;0.20;;;16.80;99.90;;;17.00;61.29;99331.50;4911816;28;99233;-73
2023/10/28 08:16:20;;;;;;;1.50;0.23;;;16.70;99.90;;;17.01;60.61;99341.19;4909641;28;97807;-73
2023/10/28 08:18:48;;;;;;;0.60;0.33;;;16.80;99.90;;;16.99;62.66;99329.81;4911603;28;97515;-75
2023/10/28 08:21:14;;;;;;;0.30;0.30;;;16.70;99.90;;;16.94;62.68;99330.22;4921145;28;97140;-73
2023/10/28 08:23:41;;;;;;;0.83;0.20;;;16.70;99.90;;;17.06;61.77;99334.50;4909932;28;97489;-73
2023/10/28 08:26:11;;;;;;;0.20;0.20;;;16.90;99.90;;;17.04;62.40;99336.44;4908440;28;99847;-73
2023/10/28 08:28:38;;;;;;;0.40;0.20;;;16.80;99.90;;;17.19;62.10;99331.66;4910063;28;97781;-73
2023/10/28 08:31:10;;;;;;;0.50;0.30;;;17.10;99.90;;;17.29;61.76;99334.41;4891916;28;97415;-73
2023/10/28 08:33:37;;;;;;;0.70;0.33;;;17.20;99.90;;;17.40;61.52;99337.88;4915114;28;109174;-73
2023/10/28 08:36:04;;;;;;;1.30;0.50;;;17.40;99.90;;;17.41;60.38;99344.88;4913023;28;97687;-73
2023/10/28 08:38:32;;;;;;;0.87;0.30;;;17.40;99.90;;;17.42;60.09;99341.22;4912912;28;97169;-73
2023/10/28 08:41:01;;;;;;;1.13;0.63;;;17.30;99.90;;;17.36;60.97;99347.09;4911327;28;99408;-72
2023/10/28 08:43:27;;;;;;;0.63;0.43;;;17.20;99.90;;;17.35;59.86;99345.38;4918987;28;104687;-73
2023/10/28 08:45:55;;;;;;;4.77;0.90;;;17.20;99.90;;;17.38;59.30;99349.63;4908890;28;97195;-72
2023/10/28 08:48:23;;;;;;;0.30;0.30;;;17.30;99.90;;;17.40;61.53;99345.84;4908736;28;97183;-73
2023/10/28 08:51:00;;;;;;;0.57;0.30;;;17.30;99.90;;;17.41;61.07;99350.22;4914892;28;97512;-73
2023/10/28 08:53:27;;;;;;;0.30;0.30;;;17.30;99.90;;;17.33;61.04;99352.66;4910289;28;101173;-73
2023/10/28 08:55:53;;;;;;;0.83;0.20;;;17.20;99.90;;;17.37;61.36;99359.44;4891448;28;99505;-73
2023/10/28 08:58:21;;;;;;;0.57;0.33;;;17.20;99.90;;;17.43;61.09;99364.25;4911970;28;97589;-73
2023/10/28 09:00:47;;;;;;;0.70;0.30;;;17.30;99.90;;;17.33;59.59;99362.47;4910047;28;97454;-74
2023/10/28 09:03:15;;;;;;;1.90;0.30;;;17.20;99.90;;;17.34;60.33;99367.69;4916647;28;99292;-73
2023/10/28 09:05:42;;;;;;;0.60;0.47;;;17.20;99.90;;;17.38;60.91;99370.94;4915144;28;96955;-73
2023/10/28 09:08:07;;;;;;;1.27;0.73;;;17.30;99.90;;;17.24;60.25;99372.94;4904115;28;97005;-73
2023/10/28 09:10:34;;;;;;;0.40;0.30;;;17.10;99.90;;;17.11;61.59;99371.44;4916729;28;97054;-72
2023/10/28 09:13:06;;;;;;;0.93;0.40;;;16.90;99.90;;;17.13;62.10;99362.34;4911762;28;97391;-74
2023/10/28 09:15:34;;;;;;;1.67;0.37;;;16.80;99.90;;;17.06;62.01;99366.47;4916391;28;97815;-73
2023/10/28 09:18:01;;;;;;;0.43;0.30;;;16.80;99.90;;;17.07;62.09;99369.97;4912859;28;97659;-75
2023/10/28 09:20:27;;;;;;;1.40;0.53;;;16.80;99.90;;;17.11;62.04;99368.75;4915352;28;97526;-73
2023/10/28 09:22:53;;;;;;;1.20;0.60;;;16.90;99.90;;;17.18;60.81;99369.94;4901652;28;99193;-73
2023/10/28 09:25:21;;;;;;;0.50;0.30;;;17.00;99.90;;;17.04;62.18;99379.06;4902849;28;97754;-73
2023/10/28 09:27:48;;;;;;;3.03;0.60;;;16.90;99.90;;;16.99;62.34;99375.09;4913240;28;97672;-74
2023/10/28 09:30:21;;;;;;;0.73;0.20;;;16.80;99.90;;;17.20;62.09;99375.97;4911007;28;97631;-73
2023/10/28 09:32:48;;;;;;;0.50;0.30;;;17.00;99.90;;;17.32;62.01;99371.44;4907670;28;102982;-74
2023/10/28 09:35:14;;;;;;;0.13;0.13;;;17.30;99.90;;;17.43;61.59;99374.06;4914941;28;98959;-73
2023/10/28 09:37:41;;;;;;;0.37;0.20;;;17.40;99.90;;;17.40;61.36;99380.50;4910653;28;97475;-73
2023/10/28 09:40:13;;;;;;;0.23;0.20;;;17.40;99.90;;;17.52;60.90;99376.81;4924120;28;97494;-73
2023/10/28 09:42:43;;;;;;;2.00;0.40;;;17.50;99.90;;;17.61;60.46;99382.31;4910371;28;97413;-73
2023/10/28 09:45:09;;;;;;;0.60;0.40;;;17.60;99.90;;;17.70;60.51;99392.25;4904240;28;98853;-73
2023/10/28 09:47:52;;;;;;;0.70;0.40;;;17.70;99.90;;;17.76;60.28;99387.22;4907015;28;97385;-73
2023/10/28 09:50:22;;;;;;;0.20;0.20;;;17.80;99.90;;;17.76;60.29;99397.91;4892137;28;97904;-74
2023/10/28 09:52:53;;;;;;;0.93;0.30;;;17.80;99.90;;;17.69;60.68;99393.22;4897389;28;100768;-73
2023/10/28 09:55:27;;;;;;;2.83;0.60;;;17.70;99.90;;;17.66;59.56;99388.13;4907139;28;97156;-74
2023/10/28 09:58:10;;;;;;;0.50;0.33;;;17.60;99.90;;;17.68;60.28;99395.06;4908099;28;96938;-73
2023/10/28 10:00:37;;;;;;;1.27;0.40;;;17.60;99.90;;;17.67;60.83;99396.00;4916204;28;97482;-73
2023/10/28 10:04:02;;;;;;;0.80;0.40;;;17.60;99.90;;;17.65;60.56;99397.06;4910399;28;98526;-74
2023/10/28 10:06:28;;;;;;;0.40;0.40;;;17.50;99.90;;;17.69;60.54;99393.22;4883368;28;104267;-73
2023/10/28 10:08:55;;;;;;;1.30;0.40;;;17.60;99.90;;;17.67;60.53;99395.16;4882771;28;98988;-73
2023/10/28 10:11:30;;;;;;;0.90;0.40;;;17.60;99.90;;;17.74;60.71;99399.00;4901229;28;97577;-73
2023/10/28 10:14:08;;;;;;;1.03;0.33;;;17.70;99.90;;;17.75;59.61;99395.38;4898658;28;100426;-73
2023/10/28 10:17:17;;;;;;;0.20;0.20;;;17.80;99.90;;;17.78;60.28;99405.75;4898367;28;99798;-73
2023/10/28 10:19:43;;;;;;;1.93;0.60;;;17.80;99.90;;;17.75;59.73;99392.69;4884274;28;97933;-73